createdAt,value
2023-05-02T00:00:15.038Z,6.48
2023-05-02T00:02:43.400Z,11.75
2023-05-02T00:05:13.092Z,5.18
2023-05-02T00:07:42.344Z,3.53
2023-05-02T00:10:11.112Z,3.17
2023-05-02T00:12:39.690Z,2.95
2023-05-02T00:15:09.411Z,3.32
2023-05-02T00:17:38.083Z,3.30
2023-05-02T00:20:09.565Z,3.10
2023-05-02T00:22:39.563Z,3.08
2023-05-02T00:25:08.847Z,3.14
2023-05-02T00:27:37.249Z,3.02
2023-05-02T00:30:06.692Z,3.18
2023-05-02T00:32:34.919Z,8.79
2023-05-02T00:35:03.708Z,8.89
2023-05-02T00:37:32.005Z,3.65
2023-05-02T00:40:01.840Z,3.00
2023-05-02T00:42:31.869Z,3.28
2023-05-02T00:44:59.949Z,3.15
2023-05-02T00:47:29.717Z,3.16
2023-05-02T00:49:59.315Z,2.94
2023-05-02T00:52:28.122Z,2.93
2023-05-02T00:54:57.063Z,3.13
2023-05-02T00:57:26.735Z,3.12
2023-05-02T00:59:55.125Z,2.99
2023-05-02T01:02:33.982Z,2.98
2023-05-02T01:05:12.527Z,3.16
2023-05-02T01:08:11.212Z,2.95
2023-05-02T01:10:51.193Z,3.07
2023-05-02T01:13:24.194Z,3.18
2023-05-02T01:15:55.176Z,3.24
2023-05-02T01:18:26.757Z,3.29
2023-05-02T01:21:02.015Z,3.20
2023-05-02T01:23:40.078Z,3.34
2023-05-02T01:26:18.931Z,3.41
2023-05-02T01:29:00.140Z,3.35
2023-05-02T01:31:33.012Z,3.10
2023-05-02T01:34:03.531Z,3.23
2023-05-02T01:36:36.261Z,3.37
2023-05-02T01:39:08.481Z,3.33
2023-05-02T01:41:38.833Z,3.31
2023-05-02T01:44:11.035Z,3.27
2023-05-02T01:46:43.458Z,3.13
2023-05-02T01:49:12.278Z,3.19
2023-05-02T01:51:47.194Z,3.28
2023-05-02T01:54:18.648Z,3.27
2023-05-02T01:56:47.320Z,3.29
2023-05-02T01:59:21.042Z,3.05
2023-05-02T02:01:52.283Z,3.64
2023-05-02T02:04:21.892Z,3.23
2023-05-02T02:06:56.804Z,3.37
2023-05-02T02:09:25.405Z,3.34
2023-05-02T02:12:02.940Z,3.12
2023-05-02T02:14:38.099Z,3.17
2023-05-02T02:17:14.581Z,2.95
2023-05-02T02:19:44.632Z,3.14
2023-05-02T02:22:15.831Z,3.27
2023-05-02T02:24:48.949Z,3.35
2023-05-02T02:27:17.439Z,3.25
2023-05-02T02:29:47.404Z,3.49
2023-05-02T02:32:15.520Z,3.10
2023-05-02T02:34:43.751Z,3.08
2023-05-02T02:37:19.367Z,3.51
2023-05-02T02:40:01.911Z,3.13
2023-05-02T02:42:40.277Z,3.18
2023-05-02T02:45:23.213Z,3.16
2023-05-02T02:48:01.469Z,3.00
2023-05-02T02:50:38.155Z,3.09
2023-05-02T02:53:10.019Z,3.12
2023-05-02T02:55:46.914Z,3.21
2023-05-02T02:58:22.757Z,2.64
2023-05-02T03:00:54.011Z,3.12
2023-05-02T03:03:29.172Z,3.07
2023-05-02T03:05:58.716Z,2.88
2023-05-02T03:08:27.657Z,3.08
2023-05-02T03:10:55.940Z,2.93
2023-05-02T03:13:24.211Z,2.92
2023-05-02T03:16:30.691Z,3.12
2023-05-02T03:18:59.013Z,2.92
2023-05-02T03:21:27.069Z,3.32
2023-05-02T03:23:57.444Z,2.91
2023-05-02T03:26:25.824Z,2.82
2023-05-02T03:28:54.167Z,2.89
2023-05-02T03:31:30.708Z,3.08
2023-05-02T03:33:59.078Z,3.00
2023-05-02T03:36:27.459Z,3.01
2023-05-02T03:38:56.413Z,3.07
2023-05-02T03:41:26.216Z,3.09
2023-05-02T03:44:01.466Z,2.88
2023-05-02T03:46:31.926Z,3.02
2023-05-02T03:49:00.020Z,2.98
2023-05-02T03:51:28.071Z,3.06
2023-05-02T03:53:58.584Z,3.13
2023-05-02T03:56:27.148Z,3.37
2023-05-02T03:59:12.892Z,2.90
2023-05-02T04:01:42.729Z,3.06
2023-05-02T04:04:13.407Z,3.24
2023-05-02T04:06:49.034Z,3.01
2023-05-02T04:09:19.112Z,3.40
2023-05-02T04:11:53.264Z,3.36
2023-05-02T04:14:21.823Z,3.69
2023-05-02T04:16:53.944Z,3.56
2023-05-02T04:19:30.652Z,3.31
2023-05-02T04:21:59.895Z,3.37
2023-05-02T04:24:28.936Z,3.54
2023-05-02T04:26:58.740Z,3.35
2023-05-02T04:29:27.252Z,3.66
2023-05-02T04:31:57.761Z,3.47
2023-05-02T04:34:28.703Z,3.21
2023-05-02T04:36:57.276Z,3.58
2023-05-02T04:39:26.702Z,3.69
2023-05-02T04:42:01.522Z,3.66
2023-05-02T04:44:32.002Z,3.54
2023-05-02T04:47:01.606Z,3.52
2023-05-02T04:49:29.991Z,3.41
2023-05-02T04:51:58.105Z,3.36
2023-05-02T04:54:26.734Z,3.33
2023-05-02T04:56:55.233Z,3.31
2023-05-02T04:59:25.268Z,3.23
2023-05-02T05:01:53.559Z,3.45
2023-05-02T05:04:23.122Z,3.33
2023-05-02T05:06:51.449Z,4.33
2023-05-02T05:09:21.597Z,9.94
2023-05-02T05:11:49.828Z,6.58
2023-05-02T05:14:18.489Z,4.17
2023-05-02T05:16:50.378Z,3.45
2023-05-02T05:19:18.913Z,3.11
2023-05-02T05:21:48.766Z,3.23
2023-05-02T05:24:19.397Z,3.27
2023-05-02T05:26:48.612Z,3.52
2023-05-02T05:29:18.291Z,3.31
2023-05-02T05:31:46.533Z,3.47
2023-05-02T05:34:17.979Z,3.38
2023-05-02T05:36:49.271Z,9.27
2023-05-02T05:39:17.855Z,8.39
2023-05-02T05:41:49.010Z,5.01
2023-05-02T05:44:18.322Z,4.06
2023-05-02T05:46:46.457Z,3.84
2023-05-02T05:49:17.358Z,3.66
2023-05-02T05:51:48.121Z,3.76
2023-05-02T05:54:20.181Z,3.76
2023-05-02T05:56:49.335Z,3.69
2023-05-02T05:59:20.291Z,3.83
2023-05-02T06:01:49.466Z,3.81
2023-05-02T06:04:19.458Z,3.82
2023-05-02T06:06:51.565Z,3.97
2023-05-02T06:09:21.427Z,3.83
2023-05-02T06:11:49.816Z,4.21
2023-05-02T06:14:17.991Z,4.21
2023-05-02T06:16:48.699Z,4.35
2023-05-02T06:19:16.827Z,4.46
2023-05-02T06:21:45.046Z,4.61
2023-05-02T06:24:13.315Z,4.38
2023-05-02T06:26:42.988Z,4.59
2023-05-02T06:29:11.105Z,8.26
2023-05-02T06:31:39.576Z,6.60
2023-05-02T06:34:08.174Z,4.56
2023-05-02T06:36:36.351Z,4.51
2023-05-02T06:39:04.890Z,4.52
2023-05-02T06:41:33.165Z,4.47
2023-05-02T06:44:02.587Z,4.57
2023-05-02T06:46:32.018Z,4.50
2023-05-02T06:49:00.359Z,4.39
2023-05-02T06:51:28.778Z,4.61
2023-05-02T06:53:56.899Z,4.52
2023-05-02T06:56:26.455Z,4.97
2023-05-02T06:58:55.229Z,4.68
2023-05-02T07:01:26.326Z,4.41
2023-05-02T07:03:55.081Z,4.65
2023-05-02T07:06:23.641Z,4.71
2023-05-02T07:08:51.860Z,4.44
2023-05-02T07:11:21.189Z,7.34
2023-05-02T07:13:49.340Z,7.27
2023-05-02T07:16:17.422Z,5.83
2023-05-02T07:18:47.124Z,5.26
2023-05-02T07:21:15.425Z,5.38
2023-05-02T07:23:43.531Z,5.20
2023-05-02T07:26:11.866Z,4.99
2023-05-02T07:28:40.068Z,5.42
2023-05-02T07:31:08.503Z,5.40
2023-05-02T07:33:37.171Z,5.10
2023-05-02T07:36:07.396Z,5.01
2023-05-02T07:38:35.454Z,4.99
2023-05-02T07:41:04.554Z,5.25
2023-05-02T07:43:32.551Z,21.05
2023-05-02T07:46:05.898Z,9.58
2023-05-02T07:48:34.177Z,6.05
2023-05-02T07:51:20.339Z,5.90
2023-05-02T07:53:51.898Z,5.68
2023-05-02T07:56:20.157Z,5.78
2023-05-02T07:58:48.202Z,5.90
2023-05-02T08:01:16.264Z,5.89
2023-05-02T08:03:44.940Z,6.22
2023-05-02T08:06:14.035Z,6.12
2023-05-02T08:08:43.501Z,6.14
2023-05-02T08:11:11.788Z,6.37
2023-05-02T08:13:40.018Z,6.16
2023-05-02T08:16:08.897Z,6.12
2023-05-02T08:18:37.496Z,6.60
2023-05-02T08:21:07.221Z,6.35
2023-05-02T08:23:37.621Z,10.42
2023-05-02T08:26:07.350Z,7.60
2023-05-02T08:28:38.185Z,7.03
2023-05-02T08:31:06.635Z,6.99
2023-05-02T08:33:35.853Z,6.95
2023-05-02T08:36:12.064Z,6.49
2023-05-02T08:38:40.083Z,6.60
2023-05-02T08:41:12.709Z,6.90
2023-05-02T08:43:41.151Z,14.27
2023-05-02T08:46:11.206Z,8.91
2023-05-02T08:48:41.757Z,6.85
2023-05-02T08:51:13.273Z,6.56
2023-05-02T08:53:42.772Z,6.58
2023-05-02T08:56:14.191Z,6.37
2023-05-02T08:58:42.982Z,6.90
2023-05-02T09:01:16.144Z,7.00
2023-05-02T09:03:46.444Z,6.62
2023-05-02T09:06:17.269Z,6.88
2023-05-02T09:08:48.873Z,6.64
2023-05-02T09:11:21.294Z,6.94
2023-05-02T09:13:51.888Z,7.16
2023-05-02T09:16:22.926Z,6.86
2023-05-02T09:18:53.064Z,6.68
2023-05-02T09:21:23.551Z,6.56
2023-05-02T09:23:54.027Z,6.89
2023-05-02T09:26:27.936Z,6.88
2023-05-02T09:28:57.961Z,6.96
2023-05-02T09:34:11.000Z,10.88
2023-05-02T09:36:44.283Z,9.14
2023-05-02T09:39:14.494Z,7.25
2023-05-02T09:41:45.393Z,7.52
2023-05-02T09:44:17.125Z,7.34
2023-05-02T09:46:48.553Z,7.48
2023-05-02T09:49:19.174Z,7.28
2023-05-02T09:51:48.076Z,7.15
2023-05-02T09:54:36.119Z,7.23
2023-05-02T09:57:07.400Z,6.77
2023-05-02T09:59:36.525Z,7.18
2023-05-02T10:02:07.713Z,13.51
2023-05-02T10:04:36.330Z,9.59
2023-05-02T10:07:06.499Z,7.30
2023-05-02T10:09:38.123Z,6.84
2023-05-02T10:12:08.882Z,7.12
2023-05-02T10:14:42.714Z,7.04
2023-05-02T10:17:16.030Z,6.65
2023-05-02T10:19:56.752Z,6.62
2023-05-02T10:22:25.747Z,6.66
2023-05-02T10:24:55.144Z,6.37
2023-05-02T10:27:25.348Z,6.45
2023-05-02T10:29:53.634Z,6.52
2023-05-02T10:32:26.352Z,6.21
2023-05-02T10:34:58.994Z,6.85
2023-05-02T10:37:30.435Z,7.53
2023-05-02T10:40:00.435Z,7.64
2023-05-02T10:42:32.186Z,8.07
2023-05-02T10:45:01.688Z,7.93
2023-05-02T10:47:30.514Z,8.51
2023-05-02T10:50:01.358Z,9.03
2023-05-02T10:52:31.784Z,8.93
2023-05-02T10:55:16.940Z,9.18
2023-05-02T10:58:23.276Z,9.30
2023-05-02T11:00:51.889Z,9.53
2023-05-02T11:03:57.978Z,9.65
2023-05-02T11:06:28.215Z,9.80
2023-05-02T11:09:30.163Z,10.24
2023-05-02T11:11:58.784Z,10.70
2023-05-02T11:14:50.949Z,9.87
2023-05-02T11:17:19.951Z,10.18
2023-05-02T11:20:21.841Z,10.15
2023-05-02T11:22:51.193Z,10.46
2023-05-02T11:25:37.293Z,10.60
2023-05-02T11:28:28.681Z,10.75
2023-05-02T11:30:58.790Z,10.60
2023-05-02T11:33:27.788Z,11.14
2023-05-02T11:35:57.069Z,11.47
2023-05-02T11:38:26.723Z,12.08
2023-05-02T11:41:02.897Z,12.34
2023-05-02T11:43:32.142Z,12.62
2023-05-02T11:46:05.088Z,11.86
2023-05-02T11:48:33.746Z,12.67
2023-05-02T11:51:07.485Z,12.86
2023-05-02T11:53:42.594Z,12.69
2023-05-02T11:56:11.071Z,13.44
2023-05-02T11:58:39.221Z,13.07
2023-05-02T12:01:16.402Z,13.05
2023-05-02T12:03:45.090Z,12.22
2023-05-02T12:06:16.033Z,12.65
2023-05-02T12:08:45.830Z,11.98
2023-05-02T12:11:15.788Z,11.96
2023-05-02T12:13:48.919Z,12.14
2023-05-02T12:16:19.983Z,11.63
2023-05-02T12:18:49.648Z,11.27
2023-05-02T12:21:18.805Z,10.84
2023-05-02T12:23:47.933Z,10.88
2023-05-02T12:26:21.529Z,10.96
2023-05-02T12:28:51.491Z,11.57
2023-05-02T12:31:21.797Z,11.55
2023-05-02T12:33:52.504Z,10.73
2023-05-02T12:36:20.724Z,11.24
2023-05-02T12:38:55.213Z,10.65
2023-05-02T12:41:33.976Z,11.00
2023-05-02T12:44:02.656Z,10.82
2023-05-02T12:46:33.125Z,10.96
2023-05-02T12:49:07.005Z,10.77
2023-05-02T12:51:35.086Z,10.99
2023-05-02T12:54:03.378Z,10.65
2023-05-02T12:56:33.143Z,11.01
2023-05-02T12:59:05.324Z,11.73
2023-05-02T13:01:35.897Z,11.99
2023-05-02T13:04:05.714Z,12.04
2023-05-02T13:06:38.209Z,12.14
2023-05-02T13:09:06.696Z,12.39
2023-05-02T13:11:34.853Z,11.74
2023-05-02T13:14:05.210Z,10.37
2023-05-02T13:16:36.620Z,10.58
2023-05-02T13:19:06.916Z,11.01
2023-05-02T13:21:35.067Z,12.00
2023-05-02T13:24:04.125Z,11.76
2023-05-02T13:26:32.529Z,10.69
2023-05-02T13:29:00.778Z,10.48
2023-05-02T13:31:28.899Z,10.95
2023-05-02T13:33:57.167Z,10.77
2023-05-02T13:36:27.029Z,9.42
2023-05-02T13:38:55.024Z,7.80
2023-05-02T13:41:24.735Z,7.28
2023-05-02T13:43:54.156Z,6.78
2023-05-02T13:46:22.251Z,6.79
2023-05-02T13:48:50.360Z,6.29
2023-05-02T13:51:18.755Z,5.96
2023-05-02T13:53:48.165Z,5.45
2023-05-02T13:56:16.448Z,5.07
2023-05-02T13:58:45.230Z,4.84
2023-05-02T14:01:13.388Z,4.63
2023-05-02T14:03:42.374Z,5.12
2023-05-02T14:06:10.852Z,4.55
2023-05-02T14:08:39.070Z,4.80
2023-05-02T14:11:08.733Z,5.03
2023-05-02T14:13:36.702Z,4.89
2023-05-02T14:16:05.211Z,4.48
2023-05-02T14:18:33.234Z,4.56
2023-05-02T14:21:01.249Z,4.25
2023-05-02T14:23:29.386Z,4.28
2023-05-02T14:25:57.456Z,4.76
2023-05-02T14:28:27.135Z,4.42
2023-05-02T14:30:55.516Z,4.61
2023-05-02T14:33:23.857Z,4.26
2023-05-02T14:35:53.365Z,4.25
2023-05-02T14:38:21.634Z,4.47
2023-05-02T14:40:49.598Z,4.37
2023-05-02T14:43:18.188Z,4.16
2023-05-02T14:45:47.928Z,4.37
2023-05-02T14:48:17.430Z,4.50
2023-05-02T14:50:45.980Z,4.69
2023-05-02T14:53:14.520Z,4.87
2023-05-02T14:55:43.329Z,4.95
2023-05-02T14:58:11.884Z,4.30
2023-05-02T15:00:40.295Z,4.59
2023-05-02T15:03:10.988Z,4.66
2023-05-02T15:05:39.231Z,4.91
2023-05-02T15:08:07.693Z,6.19
2023-05-02T15:10:38.341Z,6.62
2023-05-02T15:13:07.529Z,6.79
2023-05-02T15:15:37.403Z,6.30
2023-05-02T15:18:06.166Z,5.90
2023-05-02T15:20:35.520Z,5.97
2023-05-02T15:23:04.693Z,5.97
2023-05-02T15:25:32.868Z,5.51
2023-05-02T15:28:02.962Z,5.39
2023-05-02T15:30:31.591Z,5.46
2023-05-02T15:33:00.199Z,5.36
2023-05-02T15:35:28.382Z,5.25
2023-05-02T15:37:58.472Z,4.81
2023-05-02T15:40:28.576Z,4.97
2023-05-02T15:42:56.755Z,5.04
2023-05-02T15:45:24.789Z,5.07
2023-05-02T15:47:52.928Z,4.58
2023-05-02T15:50:21.140Z,4.46
2023-05-02T15:52:49.039Z,5.38
2023-05-02T15:55:18.415Z,4.59
2023-05-02T15:57:47.200Z,5.06
2023-05-02T16:00:18.206Z,4.50
2023-05-02T16:02:46.593Z,4.53
2023-05-02T16:05:15.657Z,4.72
2023-05-02T16:07:44.413Z,4.92
2023-05-02T16:10:12.816Z,4.79
2023-05-02T16:12:42.374Z,4.93
2023-05-02T16:15:10.848Z,4.87
2023-05-02T16:17:38.859Z,5.97
2023-05-02T16:20:08.149Z,8.44
2023-05-02T16:22:36.778Z,7.26
2023-05-02T16:25:05.820Z,6.88
2023-05-02T16:27:34.998Z,5.57
2023-05-02T16:30:06.036Z,5.08
2023-05-02T16:32:35.123Z,5.52
2023-05-02T16:35:05.043Z,4.42
2023-05-02T16:37:35.405Z,3.26
2023-05-02T16:40:05.647Z,2.72
2023-05-02T16:42:34.519Z,2.66
2023-05-02T16:45:04.828Z,5.80
2023-05-02T16:47:35.516Z,6.05
2023-05-02T16:50:04.620Z,3.68
2023-05-02T16:52:33.339Z,2.99
2023-05-02T16:55:01.674Z,2.72
2023-05-02T16:57:29.837Z,3.21
2023-05-02T16:59:58.324Z,3.36
2023-05-02T17:02:27.918Z,3.35
2023-05-02T17:04:56.379Z,2.93
2023-05-02T17:07:26.050Z,3.39
2023-05-02T17:09:54.291Z,4.24
2023-05-02T17:12:22.891Z,4.19
2023-05-02T17:14:51.883Z,4.26
2023-05-02T17:17:23.328Z,4.00
2023-05-02T17:19:52.858Z,3.44
2023-05-02T17:22:21.496Z,3.26
2023-05-02T17:24:52.883Z,3.55
2023-05-02T17:27:21.810Z,4.35
2023-05-02T17:29:50.202Z,7.79
2023-05-02T17:32:18.386Z,7.23
2023-05-02T17:34:46.639Z,5.24
2023-05-02T17:37:17.162Z,4.15
2023-05-02T17:39:46.653Z,3.48
2023-05-02T17:42:14.865Z,3.18
2023-05-02T17:44:42.996Z,3.37
2023-05-02T17:47:11.189Z,3.56
2023-05-02T17:49:39.797Z,5.37
2023-05-02T17:52:07.780Z,9.70
2023-05-02T17:54:37.438Z,6.81
2023-05-02T17:57:05.615Z,3.97
2023-05-02T17:59:33.780Z,3.62
2023-05-02T18:02:02.092Z,3.32
2023-05-02T18:04:30.338Z,3.81
2023-05-02T18:06:58.503Z,3.70
2023-05-02T18:09:26.724Z,4.01
2023-05-02T18:11:58.519Z,3.68
2023-05-02T18:14:26.788Z,3.49
2023-05-02T18:16:54.793Z,3.82
2023-05-02T18:19:23.544Z,8.41
2023-05-02T18:21:51.738Z,31.63
2023-05-02T18:24:19.933Z,13.84
2023-05-02T18:26:49.893Z,6.25
2023-05-02T18:29:19.722Z,4.62
2023-05-02T18:31:52.384Z,4.95
2023-05-02T18:34:20.998Z,5.49
2023-05-02T18:36:49.072Z,5.45
2023-05-02T18:39:17.404Z,5.25
2023-05-02T18:41:45.430Z,5.71
2023-05-02T18:44:13.418Z,5.73
2023-05-02T18:46:45.942Z,4.91
2023-05-02T18:49:14.042Z,4.70
2023-05-02T18:51:42.637Z,5.44
2023-05-02T18:54:11.081Z,7.43
2023-05-02T18:56:39.742Z,5.82
2023-05-02T18:59:07.857Z,5.43
2023-05-02T19:01:36.343Z,4.96
2023-05-02T19:04:06.947Z,5.25
2023-05-02T19:06:35.332Z,5.03
2023-05-02T19:09:04.683Z,4.99
2023-05-02T19:11:32.712Z,5.20
2023-05-02T19:14:03.649Z,5.33
2023-05-02T19:16:32.007Z,5.35
2023-05-02T19:19:00.109Z,5.15
2023-05-02T19:21:29.694Z,5.07
2023-05-02T19:23:57.678Z,5.09
2023-05-02T19:26:25.734Z,5.36
2023-05-02T19:28:53.715Z,5.72
2023-05-02T19:31:23.373Z,10.68
2023-05-02T19:33:52.416Z,7.94
2023-05-02T19:36:22.834Z,5.72
2023-05-02T19:38:54.233Z,5.23
2023-05-02T19:41:23.280Z,5.14
2023-05-02T19:43:53.001Z,5.21
2023-05-02T19:46:21.177Z,5.45
2023-05-02T19:48:49.420Z,4.98
2023-05-02T19:51:17.978Z,4.86
2023-05-02T19:53:46.301Z,5.20
2023-05-02T19:56:16.071Z,5.38
2023-05-02T19:58:44.404Z,5.88
2023-05-02T20:01:12.604Z,5.93
2023-05-02T20:03:40.820Z,5.81
2023-05-02T20:06:08.965Z,6.41
2023-05-02T20:08:37.184Z,7.23
2023-05-02T20:11:05.288Z,7.58
2023-05-02T20:13:36.457Z,7.84
2023-05-02T20:16:04.821Z,8.34
2023-05-02T20:18:33.272Z,7.97
2023-05-02T20:21:01.280Z,8.40
2023-05-02T20:23:29.413Z,8.50
2023-05-02T20:25:57.613Z,9.08
2023-05-02T20:28:26.450Z,9.40
2023-05-02T20:30:56.060Z,9.44
2023-05-02T20:33:27.503Z,9.17
2023-05-02T20:35:58.507Z,9.52
2023-05-02T20:38:26.877Z,9.96
2023-05-02T20:40:55.100Z,11.12
2023-05-02T20:43:23.409Z,11.77
2023-05-02T20:45:51.846Z,12.25
2023-05-02T20:48:22.480Z,11.62
2023-05-02T20:50:54.505Z,11.69
2023-05-02T20:53:24.040Z,11.52
2023-05-02T20:55:52.390Z,11.34
2023-05-02T20:58:20.634Z,12.47
2023-05-02T21:00:52.593Z,12.64
2023-05-02T21:03:22.988Z,11.90
2023-05-02T21:05:54.652Z,10.67
2023-05-02T21:08:23.342Z,9.01
2023-05-02T21:10:51.697Z,7.63
2023-05-02T21:13:19.860Z,5.95
2023-05-02T21:15:48.076Z,5.34
2023-05-02T21:18:16.418Z,5.38
2023-05-02T21:20:48.140Z,5.41
2023-05-02T21:23:16.062Z,5.65
2023-05-02T21:25:44.397Z,5.48
2023-05-02T21:28:12.739Z,5.17
2023-05-02T21:30:40.828Z,5.10
2023-05-02T21:33:09.396Z,5.04
2023-05-02T21:35:37.996Z,5.72
2023-05-02T21:38:07.777Z,7.16
2023-05-02T21:40:37.340Z,7.93
2023-05-02T21:43:05.648Z,7.87
2023-05-02T21:45:34.691Z,7.18
2023-05-02T21:48:02.717Z,7.11
2023-05-02T21:50:31.319Z,8.49
2023-05-02T21:52:59.267Z,9.57
2023-05-02T21:55:28.726Z,6.85
2023-05-02T21:57:57.244Z,5.72
2023-05-02T22:00:25.923Z,5.23
2023-05-02T22:02:54.211Z,4.69
2023-05-02T22:05:23.157Z,4.94
2023-05-02T22:07:52.276Z,4.48
2023-05-02T22:10:20.677Z,4.59
2023-05-02T22:12:50.081Z,4.30
2023-05-02T22:15:18.752Z,4.46
2023-05-02T22:17:46.850Z,4.42
2023-05-02T22:20:15.641Z,4.76
2023-05-02T22:22:43.981Z,5.47
2023-05-02T22:25:12.035Z,5.77
2023-05-02T22:27:40.250Z,5.67
2023-05-02T22:30:11.285Z,5.87
2023-05-02T22:32:39.497Z,6.06
2023-05-02T22:35:08.960Z,6.03
2023-05-02T22:37:37.100Z,6.38
2023-05-02T22:40:08.313Z,6.07
2023-05-02T22:42:36.677Z,6.23
2023-05-02T22:45:07.876Z,6.36
2023-05-02T22:47:37.898Z,6.46
2023-05-02T22:50:11.442Z,6.64
2023-05-02T22:52:39.961Z,6.44
2023-05-02T22:55:10.053Z,6.84
2023-05-02T22:57:38.490Z,6.50
2023-05-02T23:00:09.323Z,7.13
2023-05-02T23:02:40.023Z,6.99
2023-05-02T23:05:09.797Z,6.96
2023-05-02T23:07:38.028Z,6.68
2023-05-02T23:10:07.436Z,6.88
2023-05-02T23:12:35.500Z,7.02
2023-05-02T23:15:03.990Z,7.12
2023-05-02T23:17:32.418Z,7.45
2023-05-02T23:20:02.403Z,7.80
2023-05-02T23:22:31.032Z,7.94
2023-05-02T23:24:59.204Z,6.98
2023-05-02T23:27:27.830Z,7.60
2023-05-02T23:29:56.006Z,7.66
2023-05-02T23:32:24.033Z,7.31
2023-05-02T23:34:52.360Z,7.37
2023-05-02T23:37:23.805Z,7.35
2023-05-02T23:39:52.331Z,7.48
2023-05-02T23:42:21.256Z,7.67
2023-05-02T23:44:49.533Z,7.25
2023-05-02T23:47:17.505Z,7.13
2023-05-02T23:49:45.653Z,7.41
2023-05-02T23:52:13.640Z,7.14
2023-05-02T23:54:43.526Z,7.38
2023-05-02T23:57:11.954Z,7.20
2023-05-02T23:59:40.029Z,7.03
